Time;durP1;ratioP1;P1;durP2;ratioP2;P2;SDS_P1;SDS_P2;PMS_P1;PMS_P2;Temp;Humidity;BMP_temperature;BMP_pressure;BME280_temperature;BME280_humidity;BME280_pressure;Samples;Min_cycle;Max_cycle;Signal;HPM_P1;HPM_P2
2022/08/30 00:01:05;;;;;;;5.90;5.28;;;15.40;99.90;;;;;;4938961;28;94284;-31
2022/08/30 00:03:39;;;;;;;6.40;5.80;;;15.40;99.90;;;;;;4939133;28;93438;-30
2022/08/30 00:06:06;;;;;;;6.90;6.20;;;15.40;99.90;;;;;;4939431;28;94016;-30
2022/08/30 00:08:33;;;;;;;6.28;5.25;;;15.30;99.90;;;;;;4938957;28;93610;-30
2022/08/30 00:11:00;;;;;;;5.93;5.43;;;15.30;99.90;;;;;;4938499;28;94712;-30
2022/08/30 00:13:26;;;;;;;5.90;5.30;;;15.30;99.90;;;;;;4938962;28;93341;-30
2022/08/30 00:15:52;;;;;;;7.85;4.82;;;15.40;99.90;;;;;;4929317;28;95474;-30
2022/08/30 00:18:19;;;;;;;7.50;5.65;;;15.30;99.90;;;;;;4918908;28;92252;-34
2022/08/30 00:20:46;;;;;;;6.38;5.88;;;15.40;99.90;;;;;;4923036;28;94885;-33
2022/08/30 00:23:12;;;;;;;8.75;6.15;;;15.40;99.90;;;;;;4938376;28;96388;-36
2022/08/30 00:25:38;;;;;;;6.05;5.60;;;15.40;99.90;;;;;;4924994;28;93601;-31
2022/08/30 00:28:04;;;;;;;7.32;6.38;;;15.40;99.90;;;;;;4939352;28;93836;-33
2022/08/30 00:33:05;;;;;;;6.75;6.15;;;15.40;99.90;;;;;;4906068;28;93497;-34
2022/08/30 00:35:31;;;;;;;8.32;7.32;;;15.40;99.90;;;;;;4900458;28;94902;-33
2022/08/30 00:37:57;;;;;;;7.15;6.45;;;15.40;99.90;;;;;;4899270;28;93832;-33
2022/08/30 00:40:24;;;;;;;9.15;6.63;;;15.40;99.90;;;;;;4899918;28;94264;-33
2022/08/30 00:42:50;;;;;;;8.30;6.22;;;15.30;99.90;;;;;;4899001;28;97411;-31
2022/08/30 00:45:18;;;;;;;7.72;6.88;;;15.30;99.90;;;;;;4899016;28;93289;-31
2022/08/30 00:47:43;;;;;;;6.88;6.25;;;15.30;99.90;;;;;;4899411;28;93763;-30
2022/08/30 00:50:11;;;;;;;20.38;8.13;;;15.20;99.90;;;;;;4899704;28;96160;-30
2022/08/30 00:52:40;;;;;;;7.60;6.88;;;15.30;99.90;;;;;;4898819;28;94581;-32
2022/08/30 00:55:06;;;;;;;8.35;6.60;;;15.20;99.90;;;;;;4899593;28;93343;-31
2022/08/30 00:57:34;;;;;;;8.55;6.78;;;15.20;99.90;;;;;;4899823;28;91931;-30
2022/08/30 01:00:02;;;;;;;7.85;7.05;;;15.20;99.90;;;;;;4900154;28;95038;-30
2022/08/30 01:02:29;;;;;;;7.10;6.40;;;15.10;99.90;;;;;;4898829;28;94946;-31
2022/08/30 01:04:56;;;;;;;7.83;6.83;;;15.10;99.90;;;;;;4899148;28;93141;-31
2022/08/30 01:07:22;;;;;;;8.98;7.03;;;15.10;99.90;;;;;;4899186;28;92664;-31
2022/08/30 01:09:48;;;;;;;9.23;7.57;;;15.10;99.90;;;;;;4898998;28;94718;-30
2022/08/30 01:12:14;;;;;;;8.00;6.53;;;15.10;99.90;;;;;;4898780;28;94386;-30
2022/08/30 01:14:39;;;;;;;7.70;6.95;;;15.00;99.90;;;;;;4899940;28;94052;-33
2022/08/30 01:17:06;;;;;;;6.85;6.25;;;15.00;99.90;;;;;;4898358;28;92948;-33
2022/08/30 01:19:54;;;;;;;7.40;6.43;;;15.00;99.90;;;;;;4898383;28;94908;-36
2022/08/30 01:22:35;;;;;;;12.07;7.97;;;15.00;99.90;;;;;;4898442;28;94906;-31
2022/08/30 01:25:03;;;;;;;7.57;6.88;;;15.00;99.90;;;;;;4898992;28;93426;-33
2022/08/30 01:27:30;;;;;;;8.05;7.25;;;14.90;99.90;;;;;;4898824;28;93448;-33
2022/08/30 01:29:57;;;;;;;8.18;6.75;;;14.90;99.90;;;;;;4898694;28;95512;-31
2022/08/30 01:32:29;;;;;;;8.10;6.93;;;14.90;99.90;;;;;;4897831;28;94969;-31
2022/08/30 01:34:56;;;;;;;7.60;6.90;;;14.90;99.90;;;;;;4899517;28;94279;-31
2022/08/30 01:37:26;;;;;;;8.13;7.28;;;14.80;99.90;;;;;;4898695;28;94419;-31
2022/08/30 01:39:52;;;;;;;9.10;7.95;;;14.80;99.90;;;;;;4899316;28;94841;-32
2022/08/30 01:42:17;;;;;;;11.32;8.43;;;14.70;99.90;;;;;;4897826;28;94783;-30
2022/08/30 01:44:44;;;;;;;9.50;7.78;;;14.70;99.90;;;;;;4899256;28;93980;-31
2022/08/30 01:47:10;;;;;;;7.28;6.60;;;14.70;99.90;;;;;;4899096;28;93208;-29
2022/08/30 01:49:36;;;;;;;8.70;7.90;;;14.70;99.90;;;;;;4898416;28;94606;-34
2022/08/30 01:52:03;;;;;;;9.10;7.88;;;14.60;99.90;;;;;;4898442;28;94608;-29
2022/08/30 01:54:34;;;;;;;8.43;7.63;;;14.60;99.90;;;;;;4898293;28;94626;-33
2022/08/30 01:57:00;;;;;;;8.18;7.50;;;14.50;99.90;;;;;;4898365;28;95035;-31
2022/08/30 01:59:25;;;;;;;9.43;8.55;;;14.50;99.90;;;;;;4898070;28;95522;-34
2022/08/30 02:01:51;;;;;;;10.90;9.00;;;14.50;99.90;;;;;;4898938;28;94342;-29
2022/08/30 02:04:17;;;;;;;8.63;7.82;;;14.50;99.90;;;;;;4897786;28;94891;-32
2022/08/30 02:06:43;;;;;;;9.32;8.18;;;14.50;99.90;;;;;;4898460;28;93198;-33
2022/08/30 02:09:10;;;;;;;8.73;8.02;;;14.40;99.90;;;;;;4898221;28;94553;-31
2022/08/30 02:11:36;;;;;;;9.00;8.10;;;14.40;99.90;;;;;;4898320;28;94190;-29
2022/08/30 02:14:02;;;;;;;8.02;7.28;;;14.40;99.90;;;;;;4898944;28;93585;-35
2022/08/30 02:16:28;;;;;;;9.25;8.35;;;14.30;99.90;;;;;;4897421;28;92677;-33
2022/08/30 02:18:55;;;;;;;8.18;7.40;;;14.20;99.90;;;;;;4897811;28;95215;-32
2022/08/30 02:21:22;;;;;;;9.98;9.02;;;14.20;99.90;;;;;;4898268;28;96064;-29
2022/08/30 02:23:48;;;;;;;9.00;8.10;;;14.20;99.90;;;;;;4898794;28;92942;-29
2022/08/30 02:26:14;;;;;;;9.90;8.18;;;14.20;99.90;;;;;;4898211;28;93607;-31
2022/08/30 02:28:41;;;;;;;8.18;7.47;;;14.10;99.90;;;;;;4897515;28;94883;-32
2022/08/30 02:31:06;;;;;;;10.25;7.85;;;14.10;99.90;;;;;;4897691;28;94632;-31
2022/08/30 02:33:32;;;;;;;9.07;8.15;;;14.10;99.90;;;;;;4898234;28;94668;-35
2022/08/30 02:35:57;;;;;;;9.05;7.57;;;14.10;99.90;;;;;;4899159;28;93303;-31
2022/08/30 02:38:24;;;;;;;9.02;6.78;;;14.10;99.90;;;;;;4896883;28;94735;-34
2022/08/30 02:40:50;;;;;;;10.77;7.82;;;14.10;99.90;;;;;;4897847;28;95123;-32
2022/08/30 02:43:16;;;;;;;9.23;8.15;;;14.10;99.90;;;;;;4897149;28;95585;-29
2022/08/30 02:45:42;;;;;;;7.53;6.80;;;14.10;99.90;;;;;;4902359;28;94801;-31
2022/08/30 02:48:07;;;;;;;8.30;7.50;;;14.10;99.90;;;;;;4907229;28;95848;-30
2022/08/30 02:50:33;;;;;;;11.82;8.07;;;14.10;99.90;;;;;;4896953;28;94519;-30
2022/08/30 02:52:59;;;;;;;8.20;7.40;;;14.10;99.90;;;;;;4898536;28;93444;-31
2022/08/30 02:55:24;;;;;;;7.00;6.25;;;14.10;99.90;;;;;;4897089;28;92177;-33
2022/08/30 02:57:50;;;;;;;16.92;7.78;;;14.10;99.90;;;;;;4897996;28;94580;-28
2022/08/30 03:00:19;;;;;;;10.20;6.10;;;14.10;99.90;;;;;;4898262;28;95413;-31
2022/08/30 03:02:45;;;;;;;7.20;6.53;;;14.00;99.90;;;;;;4896891;28;93013;-34
2022/08/30 03:05:13;;;;;;;7.85;7.00;;;14.00;99.90;;;;;;4897532;28;93205;-33
2022/08/30 03:07:40;;;;;;;8.30;7.50;;;14.00;99.90;;;;;;4899331;28;95752;-30
2022/08/30 03:10:06;;;;;;;8.95;7.07;;;14.00;99.90;;;;;;4900946;28;95431;-31
2022/08/30 03:12:32;;;;;;;12.02;7.85;;;13.90;99.90;;;;;;4900549;28;92494;-34
2022/08/30 03:14:58;;;;;;;9.27;7.85;;;13.90;99.90;;;;;;4901193;28;94355;-34
2022/08/30 03:17:24;;;;;;;9.70;8.70;;;13.90;99.90;;;;;;4900135;28;94772;-33
2022/08/30 03:19:50;;;;;;;11.45;8.88;;;13.80;99.90;;;;;;4900861;28;94296;-30
2022/08/30 03:22:16;;;;;;;9.98;8.70;;;13.80;99.90;;;;;;4901626;28;92349;-30
2022/08/30 03:24:42;;;;;;;7.72;7.13;;;13.80;99.90;;;;;;4900758;28;92544;-31
2022/08/30 03:27:08;;;;;;;9.40;8.55;;;13.70;99.90;;;;;;4901006;28;95341;-33
2022/08/30 03:29:34;;;;;;;11.20;9.48;;;13.60;99.90;;;;;;4900597;28;94842;-30
2022/08/30 03:32:00;;;;;;;9.10;8.20;;;13.60;99.90;;;;;;4900070;28;95784;-34
2022/08/30 03:34:26;;;;;;;11.00;9.38;;;13.60;99.90;;;;;;4900399;28;94400;-30
2022/08/30 03:36:54;;;;;;;10.07;8.80;;;13.60;99.90;;;;;;4900568;28;94900;-33
2022/08/30 03:39:22;;;;;;;11.32;8.15;;;13.60;99.90;;;;;;4899582;28;94451;-33
2022/08/30 03:41:48;;;;;;;10.60;9.53;;;13.50;99.90;;;;;;4901080;28;94558;-35
2022/08/30 03:44:14;;;;;;;8.82;8.02;;;13.40;99.90;;;;;;4901066;28;92334;-29
2022/08/30 03:46:39;;;;;;;10.32;9.40;;;13.40;99.90;;;;;;4899929;28;94723;-31
2022/08/30 03:49:05;;;;;;;9.45;8.40;;;13.40;99.90;;;;;;4901339;28;93211;-31
2022/08/30 03:51:32;;;;;;;11.35;10.15;;;13.40;99.90;;;;;;4900104;28;94540;-32
2022/08/30 03:53:57;;;;;;;12.48;9.20;;;13.40;99.90;;;;;;4899698;28;93233;-32
2022/08/30 03:56:23;;;;;;;10.07;9.10;;;13.30;99.90;;;;;;4899852;28;96347;-31
2022/08/30 03:58:49;;;;;;;11.73;9.73;;;13.30;99.90;;;;;;4899384;28;95869;-32
2022/08/30 04:01:15;;;;;;;10.23;9.32;;;13.20;99.90;;;;;;4901223;28;94481;-33
2022/08/30 04:03:41;;;;;;;10.77;9.68;;;13.20;99.90;;;;;;4899663;28;93290;-35
2022/08/30 04:06:06;;;;;;;10.02;9.00;;;13.20;99.90;;;;;;4899731;28;94675;-34
2022/08/30 04:08:32;;;;;;;10.63;9.73;;;13.20;99.90;;;;;;4899988;28;94135;-30
2022/08/30 04:10:58;;;;;;;11.70;9.65;;;13.10;99.90;;;;;;4900492;28;92528;-33
2022/08/30 04:13:24;;;;;;;10.95;9.88;;;13.10;99.90;;;;;;4900307;28;92162;-34
2022/08/30 04:15:49;;;;;;;11.35;10.20;;;13.10;99.90;;;;;;4899269;28;94459;-34
2022/08/30 04:18:16;;;;;;;13.48;10.27;;;13.00;99.90;;;;;;4897793;28;94695;-34
2022/08/30 04:20:42;;;;;;;10.68;9.63;;;13.00;99.90;;;;;;4899494;28;94059;-30
2022/08/30 04:23:09;;;;;;;12.68;10.27;;;13.00;99.90;;;;;;4898552;28;94560;-31
2022/08/30 04:25:36;;;;;;;11.00;9.75;;;13.00;99.90;;;;;;4899228;28;95424;-30
2022/08/30 04:28:03;;;;;;;10.37;9.33;;;13.00;99.90;;;;;;4899599;28;94927;-30
2022/08/30 04:30:29;;;;;;;12.32;11.02;;;13.00;99.90;;;;;;4899844;28;94315;-30
2022/08/30 04:32:55;;;;;;;12.73;11.32;;;12.90;99.90;;;;;;4899018;28;92120;-30
2022/08/30 04:35:21;;;;;;;10.43;9.43;;;12.90;99.90;;;;;;4902811;28;94624;-33
2022/08/30 04:37:47;;;;;;;11.65;9.57;;;12.90;99.90;;;;;;4909097;28;94556;-29
2022/08/30 04:40:13;;;;;;;9.90;8.70;;;12.80;99.90;;;;;;4899571;28;94755;-33
2022/08/30 04:42:38;;;;;;;12.65;10.60;;;12.80;99.90;;;;;;4898944;28;93238;-33
2022/08/30 04:45:08;;;;;;;12.50;10.45;;;12.80;99.90;;;;;;4898793;28;95669;-33
2022/08/30 04:47:34;;;;;;;11.07;9.98;;;12.70;99.90;;;;;;4898738;28;94202;-33
2022/08/30 04:49:59;;;;;;;11.30;10.20;;;12.70;99.90;;;;;;4899691;28;92756;-30
2022/08/30 04:52:27;;;;;;;19.60;11.43;;;12.70;99.90;;;;;;4897815;28;92146;-32
2022/08/30 04:54:54;;;;;;;10.63;9.57;;;12.70;99.90;;;;;;4898993;28;94751;-30
2022/08/30 04:57:20;;;;;;;11.60;9.67;;;12.70;99.90;;;;;;4899158;28;94855;-31
2022/08/30 04:59:46;;;;;;;10.73;9.63;;;12.70;99.90;;;;;;4899580;28;93700;-34
2022/08/30 05:02:11;;;;;;;12.70;11.02;;;12.60;99.90;;;;;;4899246;28;91380;-36
2022/08/30 05:05:38;;;;;;;14.27;11.25;;;12.60;99.90;;;;;;4898404;28;96508;-32
2022/08/30 05:07:22;;;;;;;11.27;10.15;;;12.60;99.90;;;;;;4897815;28;95343;-31
2022/08/30 05:09:48;;;;;;;11.00;10.00;;;12.60;99.90;;;;;;4898357;28;94433;-34
2022/08/30 05:12:14;;;;;;;13.73;10.57;;;12.50;99.90;;;;;;4898280;28;92594;-30
2022/08/30 05:14:39;;;;;;;11.32;10.13;;;12.50;99.90;;;;;;4908111;28;93826;-32
2022/08/30 05:17:05;;;;;;;11.60;10.50;;;12.50;99.90;;;;;;4908968;28;94314;-32
2022/08/30 05:19:32;;;;;;;11.40;10.20;;;12.50;99.90;;;;;;4917425;28;93398;-34
2022/08/30 05:21:58;;;;;;;12.13;10.67;;;12.50;99.90;;;;;;4918033;28;92344;-33
2022/08/30 05:24:24;;;;;;;15.70;9.98;;;12.40;99.90;;;;;;4906063;28;95306;-31
2022/08/30 05:26:50;;;;;;;11.32;10.13;;;12.40;99.90;;;;;;4898365;28;94928;-32
2022/08/30 05:29:15;;;;;;;11.57;10.50;;;12.40;99.90;;;;;;4897765;28;94094;-29
2022/08/30 05:31:46;;;;;;;13.23;11.43;;;12.40;99.90;;;;;;4898063;28;93159;-33
2022/08/30 05:34:11;;;;;;;10.45;9.45;;;12.40;99.90;;;;;;4896954;28;96554;-37
2022/08/30 05:36:38;;;;;;;10.18;9.18;;;12.40;99.90;;;;;;4899472;28;96243;-34
2022/08/30 05:39:05;;;;;;;9.60;8.68;;;12.50;99.90;;;;;;4918560;28;94682;-33
2022/08/30 05:41:31;;;;;;;10.40;9.30;;;12.50;99.90;;;;;;4917669;28;94303;-30
2022/08/30 05:43:59;;;;;;;11.50;10.32;;;12.50;99.90;;;;;;4917377;28;95193;-32
2022/08/30 05:46:28;;;;;;;10.40;9.40;;;12.60;99.90;;;;;;4918010;28;94067;-30
2022/08/30 05:48:54;;;;;;;14.23;10.93;;;12.70;99.90;;;;;;4917608;28;94694;-32
2022/08/30 05:51:22;;;;;;;10.80;9.77;;;12.70;99.90;;;;;;4904812;28;93749;-30
2022/08/30 05:53:50;;;;;;;11.13;9.77;;;12.70;99.90;;;;;;4901582;28;94736;-30
2022/08/30 05:56:22;;;;;;;10.70;9.03;;;12.80;99.90;;;;;;4904317;28;94562;-33
2022/08/30 05:58:47;;;;;;;10.55;9.48;;;12.90;99.90;;;;;;4896400;28;94192;-32
2022/08/30 06:01:26;;;;;;;11.85;9.88;;;12.90;99.90;;;;;;4896723;28;94211;-33
2022/08/30 06:03:53;;;;;;;16.55;10.25;;;13.00;99.90;;;;;;4896148;28;95289;-31
2022/08/30 06:06:19;;;;;;;11.05;9.35;;;13.10;99.90;;;;;;4898061;28;94721;-31
2022/08/30 06:08:46;;;;;;;11.93;10.57;;;13.20;99.90;;;;;;4896676;28;92125;-31
2022/08/30 06:11:12;;;;;;;10.27;9.25;;;13.20;99.90;;;;;;4895967;28;94638;-33
2022/08/30 06:13:39;;;;;;;9.80;8.85;;;13.30;99.90;;;;;;4895673;28;95573;-33
2022/08/30 06:16:05;;;;;;;12.13;8.88;;;13.40;99.90;;;;;;4896560;28;93467;-32
2022/08/30 06:18:30;;;;;;;9.50;8.45;;;13.50;99.90;;;;;;4896498;28;94341;-31
2022/08/30 06:20:57;;;;;;;8.65;7.72;;;13.50;99.90;;;;;;4896193;28;93115;-32
2022/08/30 06:23:23;;;;;;;9.50;8.50;;;13.60;99.90;;;;;;4895623;28;95669;-31
2022/08/30 06:25:49;;;;;;;10.95;9.35;;;13.70;99.90;;;;;;4899990;28;96107;-32
2022/08/30 06:28:15;;;;;;;10.32;8.85;;;13.80;99.90;;;;;;4899788;28;95306;-35
2022/08/30 06:30:42;;;;;;;8.85;7.95;;;13.90;99.90;;;;;;4911486;28;93754;-34
2022/08/30 06:33:08;;;;;;;8.15;7.35;;;14.00;99.90;;;;;;4914217;28;94668;-30
2022/08/30 06:35:34;;;;;;;8.80;7.95;;;14.10;99.90;;;;;;4913758;28;94388;-31
2022/08/30 06:38:00;;;;;;;9.25;7.93;;;14.20;99.90;;;;;;4909190;28;94515;-30
2022/08/30 06:40:26;;;;;;;8.80;7.90;;;14.30;99.90;;;;;;4913794;28;92796;-33
2022/08/30 06:42:52;;;;;;;9.45;7.68;;;14.40;99.90;;;;;;4916857;28;94468;-34
2022/08/30 06:45:19;;;;;;;9.77;8.23;;;14.40;99.90;;;;;;4917682;28;94588;-30
2022/08/30 06:47:45;;;;;;;8.45;7.50;;;14.50;99.90;;;;;;4916901;28;93716;-30
2022/08/30 06:50:12;;;;;;;7.40;6.70;;;14.60;99.90;;;;;;4917997;28;93824;-30
2022/08/30 06:52:42;;;;;;;7.40;6.70;;;14.60;99.90;;;;;;4916944;28;95591;-33
2022/08/30 06:55:13;;;;;;;7.82;7.03;;;14.80;99.90;;;;;;4917980;28;94521;-29
2022/08/30 06:57:38;;;;;;;10.85;7.70;;;14.90;99.90;;;;;;4917719;28;94647;-34
2022/08/30 07:00:07;;;;;;;6.60;6.00;;;15.00;99.90;;;;;;4917354;28;93429;-31
2022/08/30 07:02:35;;;;;;;6.13;5.53;;;15.20;99.90;;;;;;4916859;28;96512;-32
2022/08/30 07:05:01;;;;;;;7.15;6.30;;;15.30;99.90;;;;;;4917868;28;94090;-35
2022/08/30 07:07:26;;;;;;;7.85;6.45;;;15.50;99.90;;;;;;4917541;28;93969;-30
2022/08/30 07:09:52;;;;;;;14.07;6.70;;;15.60;99.90;;;;;;4917046;28;93025;-31
2022/08/30 07:12:18;;;;;;;15.32;6.30;;;15.80;99.90;;;;;;4917050;28;95671;-31
2022/08/30 07:14:44;;;;;;;6.43;5.82;;;16.00;99.90;;;;;;4916772;28;94498;-32
2022/08/30 07:19:54;;;;;;;6.18;4.63;;;16.40;99.90;;;;;;4898293;28;93094;-34
2022/08/30 07:22:19;;;;;;;4.53;4.00;;;16.60;99.90;;;;;;4898057;28;94518;-29
2022/08/30 07:24:45;;;;;;;5.05;4.32;;;16.80;99.90;;;;;;4898301;28;93725;-32
2022/08/30 07:27:11;;;;;;;5.78;5.22;;;17.00;99.90;;;;;;4898419;28;92198;-30
2022/08/30 07:29:37;;;;;;;6.28;4.35;;;17.10;99.90;;;;;;4898746;28;92666;-33
2022/08/30 07:32:02;;;;;;;4.68;4.22;;;17.30;99.90;;;;;;4897783;28;94483;-35
2022/08/30 07:34:28;;;;;;;3.38;3.08;;;17.50;99.90;;;;;;4897950;28;94456;-33
2022/08/30 07:36:53;;;;;;;5.15;3.28;;;17.70;99.90;;;;;;4897497;28;94925;-31
2022/08/30 07:39:19;;;;;;;3.83;3.47;;;17.90;99.90;;;;;;4896693;28;92875;-33
2022/08/30 07:41:45;;;;;;;4.72;3.78;;;18.00;99.90;;;;;;4902662;28;94614;-33
2022/08/30 07:44:12;;;;;;;8.98;4.05;;;18.00;99.90;;;;;;4906713;28;94489;-35
2022/08/30 07:46:38;;;;;;;3.90;2.95;;;18.10;99.90;;;;;;4897412;28;93677;-34
2022/08/30 07:49:05;;;;;;;3.67;3.22;;;18.20;99.90;;;;;;4897939;28;93505;-32
2022/08/30 07:51:31;;;;;;;6.63;3.00;;;18.30;99.90;;;;;;4896944;28;93433;-33
2022/08/30 07:53:57;;;;;;;2.97;2.72;;;18.50;99.90;;;;;;4897763;28;94708;-33
2022/08/30 07:56:23;;;;;;;4.45;2.70;;;18.60;99.90;;;;;;4909580;28;93212;-31
2022/08/30 07:58:49;;;;;;;2.50;2.30;;;18.80;99.90;;;;;;4898017;28;93719;-33
2022/08/30 08:01:17;;;;;;;3.35;2.38;;;18.80;99.90;;;;;;4897023;28;95713;-33
2022/08/30 08:03:43;;;;;;;3.47;2.73;;;18.90;99.90;;;;;;4897195;28;94512;-32
2022/08/30 08:06:11;;;;;;;3.95;2.50;;;18.90;99.90;;;;;;4897684;28;95066;-30
2022/08/30 08:08:38;;;;;;;4.13;2.58;;;19.00;99.90;;;;;;4897698;28;93100;-32
2022/08/30 08:11:24;;;;;;;3.25;2.03;;;19.20;99.90;;;;;;4898766;28;94562;-30
2022/08/30 08:13:51;;;;;;;8.82;2.85;;;19.30;99.90;;;;;;4896230;28;96062;-32
2022/08/30 08:16:18;;;;;;;3.37;2.23;;;19.40;99.90;;;;;;4897023;28;93257;-33
2022/08/30 08:18:43;;;;;;;2.10;1.83;;;19.40;99.90;;;;;;4897390;28;93108;-34
2022/08/30 08:21:10;;;;;;;3.85;2.28;;;19.40;99.90;;;;;;4897830;28;94699;-33
2022/08/30 08:23:36;;;;;;;2.15;1.95;;;19.40;99.90;;;;;;4896771;28;94275;-31
2022/08/30 08:26:02;;;;;;;3.85;2.35;;;19.50;99.90;;;;;;4897625;28;95595;-33
2022/08/30 08:28:29;;;;;;;3.67;2.67;;;19.50;99.90;;;;;;4896590;28;92803;-33
2022/08/30 08:30:54;;;;;;;2.08;1.50;;;19.60;99.90;;;;;;4896717;28;94797;-33
2022/08/30 08:33:21;;;;;;;1.95;1.77;;;19.70;99.90;;;;;;4896829;28;94522;-31
2022/08/30 08:35:46;;;;;;;3.15;2.13;;;19.90;99.90;;;;;;4897789;28;94905;-34
2022/08/30 08:38:12;;;;;;;3.08;1.73;;;19.90;99.90;;;;;;4896411;28;94266;-36
2022/08/30 08:40:58;;;;;;;3.63;2.10;;;19.90;99.90;;;;;;4896650;28;94485;-34
2022/08/30 08:43:25;;;;;;;3.70;3.10;;;20.00;99.90;;;;;;4896772;28;94735;-33
2022/08/30 08:46:08;;;;;;;4.60;2.88;;;20.00;99.90;;;;;;4897524;28;92133;-34
2022/08/30 08:48:40;;;;;;;1.67;1.58;;;20.00;99.90;;;;;;4896189;28;93664;-31
2022/08/30 08:54:03;;;;;;;1.83;1.40;;;20.20;99.90;;;;;;4896472;28;95551;-34
2022/08/30 08:56:29;;;;;;;2.28;1.92;;;20.20;99.90;;;;;;4896405;28;93271;-33
2022/08/30 08:58:56;;;;;;;2.75;1.63;;;20.20;99.90;;;;;;4896355;28;93358;-35
2022/08/30 09:01:26;;;;;;;1.83;1.70;;;20.30;99.90;;;;;;4896293;28;95131;-32
2022/08/30 09:03:53;;;;;;;4.35;1.40;;;20.30;99.90;;;;;;4896348;28;94451;-32
2022/08/30 09:06:30;;;;;;;2.22;1.42;;;20.30;99.90;;;;;;4895932;28;93738;-32
2022/08/30 09:08:57;;;;;;;3.13;1.85;;;20.30;99.90;;;;;;4896505;28;91793;-37
2022/08/30 09:11:27;;;;;;;4.50;1.90;;;20.10;99.90;;;;;;4896581;28;94596;-33
2022/08/30 09:13:53;;;;;;;2.53;1.58;;;20.10;99.90;;;;;;4911536;28;95233;-33
2022/08/30 09:16:48;;;;;;;1.65;1.55;;;20.10;99.90;;;;;;4895926;28;95104;-33
2022/08/30 09:19:34;;;;;;;3.00;2.15;;;20.10;99.90;;;;;;4895757;28;92619;-32
2022/08/30 09:22:29;;;;;;;1.73;1.63;;;20.10;99.90;;;;;;4896526;28;94890;-34
2022/08/30 09:25:01;;;;;;;1.70;1.35;;;20.20;99.90;;;;;;4896282;28;94805;-30
2022/08/30 09:27:30;;;;;;;2.15;1.95;;;20.30;99.90;;;;;;4896437;28;93095;-34
2022/08/30 09:29:58;;;;;;;2.88;1.73;;;20.20;99.90;;;;;;4895578;28;92559;-31
2022/08/30 09:32:35;;;;;;;5.53;1.73;;;20.20;99.90;;;;;;4896054;28;94381;-32
2022/08/30 09:35:03;;;;;;;1.50;1.40;;;20.20;99.90;;;;;;4895903;28;95196;-35
2022/08/30 09:37:31;;;;;;;;;;;20.20;99.90;;;;;;4896056;28;93309;-34
2022/08/30 09:39:57;;;;;;;2.00;1.25;;;20.20;99.90;;;;;;4896836;28;93201;-35
2022/08/30 09:42:25;;;;;;;1.30;1.17;;;20.30;99.90;;;;;;4895699;28;95755;-33
2022/08/30 09:45:09;;;;;;;4.53;1.70;;;20.40;99.90;;;;;;4895926;28;95066;-32
2022/08/30 09:47:40;;;;;;;4.82;1.67;;;20.70;99.90;;;;;;4895790;28;94370;-35
2022/08/30 09:50:16;;;;;;;2.85;1.55;;;20.80;99.90;;;;;;4895585;28;93476;-31
2022/08/30 09:53:08;;;;;;;3.35;1.77;;;20.90;99.90;;;;;;4895602;28;94732;-35
2022/08/30 09:55:46;;;;;;;5.22;1.50;;;21.00;99.90;;;;;;4894933;28;94536;-32
2022/08/30 09:58:33;;;;;;;2.10;1.90;;;21.20;99.90;;;;;;4895971;28;95283;-36
2022/08/30 10:01:10;;;;;;;6.30;1.75;;;21.20;99.90;;;;;;4896084;28;91473;-32
2022/08/30 10:03:49;;;;;;;3.60;2.08;;;21.40;99.90;;;;;;4895505;28;95462;-35
2022/08/30 10:06:40;;;;;;;2.75;1.63;;;21.40;99.90;;;;;;4895943;28;93415;-33
2022/08/30 10:09:44;;;;;;;1.35;1.25;;;21.40;99.90;;;;;;4895750;28;95059;-31
2022/08/30 10:12:54;;;;;;;1.83;1.73;;;21.50;99.90;;;;;;4896446;28;94640;-31
2022/08/30 10:15:23;;;;;;;2.17;1.33;;;21.60;99.90;;;;;;4894837;28;94687;-33
2022/08/30 10:18:06;;;;;;;2.45;1.30;;;21.70;99.90;;;;;;4898338;28;94885;-33
2022/08/30 10:20:54;;;;;;;2.42;1.63;;;21.60;99.90;;;;;;4899344;28;93395;-32
2022/08/30 10:23:27;;;;;;;1.30;1.05;;;21.60;99.20;;;;;;4899022;28;93077;-31
2022/08/30 10:26:10;;;;;;;2.40;1.42;;;21.60;98.50;;;;;;4899369;28;93573;-32
2022/08/30 10:28:49;;;;;;;3.83;1.30;;;21.70;99.90;;;;;;4897902;28;95114;-33
2022/08/30 10:31:27;;;;;;;1.38;1.27;;;21.70;99.90;;;;;;4898682;28;94979;-33
2022/08/30 10:33:59;;;;;;;1.15;0.93;;;21.80;99.90;;;;;;4898380;28;94826;-35
2022/08/30 10:36:32;;;;;;;1.67;1.17;;;21.90;99.90;;;;;;4898248;28;94946;-34
2022/08/30 10:39:00;;;;;;;3.13;1.25;;;21.90;99.90;;;;;;4898547;28;95504;-33
2022/08/30 10:41:39;;;;;;;2.50;1.38;;;21.90;99.90;;;;;;4899030;28;92131;-34
2022/08/30 10:44:26;;;;;;;3.78;1.77;;;21.80;99.90;;;;;;4900045;28;93634;-36
2022/08/30 10:47:23;;;;;;;1.25;1.10;;;21.90;99.40;;;;;;4903358;28;96467;-31
2022/08/30 10:49:53;;;;;;;2.33;1.30;;;21.70;97.30;;;;;;4906385;28;94509;-32
2022/08/30 10:52:46;;;;;;;2.22;2.00;;;21.70;98.20;;;;;;4898320;28;94138;-34
2022/08/30 10:55:20;;;;;;;1.10;1.00;;;21.60;99.10;;;;;;4906594;28;94256;-37
2022/08/30 10:57:47;;;;;;;3.88;1.67;;;21.70;99.90;;;;;;4908874;28;94096;-34
2022/08/30 11:00:26;;;;;;;2.45;1.80;;;21.90;99.90;;;;;;4897660;28;94735;-32
2022/08/30 11:03:07;;;;;;;4.40;2.03;;;22.10;99.80;;;;;;4911726;28;95300;-32
2022/08/30 11:05:45;;;;;;;2.33;1.13;;;22.10;97.40;;;;;;4904617;28;92933;-36
2022/08/30 11:08:37;;;;;;;1.42;1.33;;;22.10;98.80;;;;;;4917141;28;96331;-33
2022/08/30 11:11:29;;;;;;;1.52;1.42;;;22.10;99.90;;;;;;4918015;28;94771;-34
2022/08/30 11:13:55;;;;;;;1.75;1.45;;;22.10;96.30;;;;;;4913938;28;94883;-35
2022/08/30 11:16:40;;;;;;;2.33;1.63;;;22.10;99.90;;;;;;4917465;28;93042;-35
2022/08/30 11:19:24;;;;;;;1.25;1.13;;;22.10;99.40;;;;;;4916926;28;93678;-36
2022/08/30 11:21:50;;;;;;;1.05;0.95;;;22.10;99.40;;;;;;4917882;28;94882;-33
2022/08/30 11:24:20;;;;;;;1.30;1.20;;;22.20;99.60;;;;;;4907377;28;93688;-33
2022/08/30 11:26:47;;;;;;;1.77;1.20;;;22.10;96.60;;;;;;4897627;28;92637;-32
2022/08/30 11:29:43;;;;;;;1.20;1.10;;;22.00;99.60;;;;;;4904461;28;95843;-36
2022/08/30 11:32:11;;;;;;;1.27;1.17;;;22.10;99.90;;;;;;4916716;28;95660;-34
2022/08/30 11:34:46;;;;;;;5.43;1.30;;;22.20;99.90;;;;;;4916785;28;94786;-36
2022/08/30 11:37:36;;;;;;;1.63;1.30;;;22.30;99.90;;;;;;4917296;28;94302;-38
2022/08/30 11:40:07;;;;;;;2.28;1.10;;;22.30;99.90;;;;;;4916644;28;94595;-36
2022/08/30 11:42:39;;;;;;;1.63;1.10;;;22.30;99.90;;;;;;4915125;28;95111;-35
2022/08/30 11:45:23;;;;;;;1.90;1.15;;;22.50;98.70;;;;;;4916716;28;92873;-33
2022/08/30 11:48:06;;;;;;;2.42;1.73;;;22.40;99.90;;;;;;4917837;28;92520;-34
2022/08/30 11:50:51;;;;;;;11.25;1.20;;;22.40;99.90;;;;;;4916205;28;93608;-36
2022/08/30 11:53:34;;;;;;;1.42;0.93;;;22.50;93.50;;;;;;4916738;28;95335;-36
2022/08/30 11:56:26;;;;;;;2.80;1.40;;;22.50;95.30;;;;;;4916900;28;95194;-32
2022/08/30 11:59:03;;;;;;;1.20;1.05;;;22.50;95.70;;;;;;4913211;28;93859;-35
2022/08/30 12:01:35;;;;;;;1.10;1.10;;;22.30;95.90;;;;;;4916508;28;94889;-33
2022/08/30 12:04:11;;;;;;;3.35;1.00;;;22.40;98.50;;;;;;4916714;28;94987;-34
2022/08/30 12:06:40;;;;;;;2.17;1.52;;;22.40;99.90;;;;;;4917503;28;93306;-33
2022/08/30 12:09:32;;;;;;;1.50;1.05;;;22.40;97.10;;;;;;4916315;28;94753;-34
2022/08/30 12:12:11;;;;;;;1.83;1.65;;;22.10;98.70;;;;;;4911221;28;94730;-34
2022/08/30 12:14:40;;;;;;;2.38;1.40;;;22.10;99.90;;;;;;4916832;28;93215;-33
2022/08/30 12:20:14;;;;;;;8.60;1.55;;;22.40;98.90;;;;;;4909415;28;94771;-33
2022/08/30 12:22:40;;;;;;;0.77;0.77;;;22.20;99.90;;;;;;4896165;28;95630;-33
2022/08/30 12:25:27;;;;;;;3.55;1.17;;;22.00;99.90;;;;;;4896690;28;96101;-35
2022/08/30 12:28:15;;;;;;;1.23;1.13;;;21.90;99.90;;;;;;4897611;28;94868;-34
2022/08/30 12:30:56;;;;;;;3.15;1.40;;;22.00;99.90;;;;;;4896938;28;93391;-35
2022/08/30 12:33:26;;;;;;;3.13;1.33;;;22.20;99.90;;;;;;4856172;28;94718;-32
2022/08/30 12:35:53;;;;;;;3.08;1.48;;;22.10;99.90;;;;;;4858817;28;94501;-34
2022/08/30 12:38:20;;;;;;;1.48;1.00;;;22.10;99.90;;;;;;4858579;28;93684;-33
2022/08/30 12:40:56;;;;;;;1.50;0.95;;;22.10;99.90;;;;;;4857520;28;93073;-33
2022/08/30 12:43:27;;;;;;;1.95;1.23;;;22.40;99.90;;;;;;4858562;28;94861;-30
2022/08/30 12:45:56;;;;;;;1.13;1.02;;;22.40;99.90;;;;;;4858198;28;94755;-34
2022/08/30 12:48:22;;;;;;;1.60;1.05;;;22.60;99.90;;;;;;4857465;28;93518;-32
2022/08/30 12:50:52;;;;;;;2.42;1.08;;;22.60;99.70;;;;;;4858543;28;93329;-32
2022/08/30 12:53:28;;;;;;;3.97;1.42;;;22.50;99.90;;;;;;4858201;28;94482;-32
2022/08/30 12:56:00;;;;;;;2.45;1.38;;;22.50;99.90;;;;;;4858604;28;94617;-33
2022/08/30 12:58:49;;;;;;;3.03;1.10;;;22.60;99.90;;;;;;4858798;28;94624;-33
2022/08/30 13:01:29;;;;;;;1.35;1.10;;;22.60;99.90;;;;;;5080075;27;88706;-37
2022/08/30 13:03:59;;;;;;;3.05;1.85;;;22.50;99.90;;;;;;5076143;27;89282;-39
2022/08/30 13:06:52;;;;;;;1.23;1.13;;;22.50;99.90;;;;;;5076213;27;89659;-35
2022/08/30 13:09:29;;;;;;;1.30;1.20;;;22.60;99.20;;;;;;5071734;27;90550;-41